KMMK

Meriden Markham Municipal Airport

Meriden, Connecticut, USA
METAR KMMK 191653Z AUTO 04007KT 10SM SCT038 OVC055 24/16 A3000 RMK AO2 SLP158 T02390156
Observed Flight Rules
Aug-19 @ 16:53 UTC (20 minutes ago) Visual Flight Rules
Wind Visibility Clouds
40° at 7 knots 10 miles
  • Scattered at 3,800' AGL
  • Overcast at 5,500' AGL
Temperatures Readings
Current 24°C / 75°F
Dewpoint 16°C / 61°F
Humidity 61%
Altimeter 30" Hg
Pressure 1015.8 hPa
Elevation 31
METAR KMMK 191653Z AUTO 04007KT 10SM SCT038 OVC055 24/16 A3000 RMK AO2 SLP158 T02390156
Observed Flight Rules
Aug-19 @ 16:53 UTC
(20 minutes ago)
VFR
Wind Visibility
40° at 7 knots 10 miles
Clouds
  • Scattered at 3,800' AGL
  • Overcast at 5,500' AGL
Temperature Dewpoint
24°C / 75°F 16°C / 61°F
Humidity Altimeter Pressure
61% 30" Hg 1015.8 hPa